Time;durP1;ratioP1;P1;durP2;ratioP2;P2;SDS_P1;SDS_P2;PMS_P1;PMS_P2;Temp;Humidity;BMP_temperature;BMP_pressure;BME280_temperature;BME280_humidity;BME280_pressure;Samples;Min_cycle;Max_cycle;Signal;HPM_P1;HPM_P2
2022/11/28 00:00:53;;;;;;;;;7.00;7.00;;;;;20.16;56.28;101864.63;105638;1296;19222;-68
2022/11/28 00:03:28;;;;;;;;;5.00;5.00;;;;;20.16;56.11;101864.08;105626;1279;20990;-70
2022/11/28 00:05:56;;;;;;;;;7.00;7.00;;;;;20.16;55.94;101866.40;105696;1300;20156;-67
2022/11/28 00:08:23;;;;;;;;;7.00;7.00;;;;;20.16;55.83;101866.96;105612;1291;19539;-68
2022/11/28 00:10:50;;;;;;;;;5.00;5.00;;;;;20.16;56.11;101864.38;105675;1289;19349;-69
2022/11/28 00:13:18;;;;;;;;;7.00;5.00;;;;;20.17;56.13;101869.25;105665;1297;20461;-69
2022/11/28 00:15:45;;;;;;;;;5.00;5.00;;;;;20.15;56.14;101870.85;105673;1279;24107;-70
2022/11/28 00:18:13;;;;;;;;;5.00;5.00;;;;;20.16;56.09;101864.63;105573;1275;139486;-69
2022/11/28 00:20:41;;;;;;;;;7.00;7.00;;;;;20.16;56.01;101870.76;105685;1279;21491;-68
2022/11/28 00:23:08;;;;;;;;;5.00;5.00;;;;;20.16;56.04;101875.81;105663;1297;19214;-67
2022/11/28 00:25:36;;;;;;;;;8.00;5.00;;;;;20.15;56.01;101871.90;105672;1288;19255;-67
2022/11/28 00:28:03;;;;;;;;;7.00;7.00;;;;;20.17;55.94;101872.14;105689;1294;20039;-69
2022/11/28 00:30:30;;;;;;;;;7.00;7.00;;;;;20.16;55.96;101872.94;105687;1281;24215;-69
2022/11/28 00:32:58;;;;;;;;;5.00;5.00;;;;;20.16;55.85;101870.45;105675;1292;19378;-68
2022/11/28 00:35:26;;;;;;;;;7.00;7.00;;;;;20.16;55.84;101870.36;105677;1288;20125;-71
2022/11/28 00:37:53;;;;;;;;;8.00;7.00;;;;;20.16;55.96;101870.94;105682;1297;23655;-69
2022/11/28 00:40:20;;;;;;;;;7.50;5.00;;;;;20.15;55.74;101872.06;105646;1295;19390;-68
2022/11/28 00:42:48;;;;;;;;;5.00;5.00;;;;;20.14;55.96;101868.75;105679;1279;21539;-69
2022/11/28 00:45:16;;;;;;;;;5.00;5.00;;;;;20.14;55.69;101863.16;105646;1287;19320;-67
2022/11/28 00:47:43;;;;;;;;;6.00;5.00;;;;;20.14;55.91;101864.39;105634;1297;23466;-71
2022/11/28 00:50:11;;;;;;;;;5.00;5.00;;;;;20.14;55.92;101859.84;105714;1288;20074;-68
2022/11/28 00:52:38;;;;;;;;;7.00;7.00;;;;;20.14;55.75;101851.91;105671;1289;19197;-68
2022/11/28 00:55:05;;;;;;;;;8.00;7.00;;;;;20.15;55.90;101852.19;105659;1297;19372;-68
2022/11/28 00:57:33;;;;;;;;;5.00;5.00;;;;;20.15;55.77;101851.27;105684;1297;21667;-69
2022/11/28 01:00:00;;;;;;;;;7.00;7.00;;;;;20.15;55.68;101851.67;105670;1297;19837;-69
2022/11/28 01:02:28;;;;;;;;;6.00;5.00;;;;;20.14;55.66;101851.19;105679;1288;19647;-68
2022/11/28 01:04:56;;;;;;;;;7.00;7.00;;;;;20.13;55.69;101853.26;105724;1280;20089;-68
2022/11/28 01:07:23;;;;;;;;;5.00;5.00;;;;;20.13;55.79;101854.35;105671;1279;19203;-66
2022/11/28 01:09:51;;;;;;;;;5.00;5.00;;;;;20.13;55.70;101850.16;105625;1297;19653;-68
2022/11/28 01:12:18;;;;;;;;;4.00;4.00;;;;;20.14;55.59;101849.92;105646;1297;20086;-68
2022/11/28 01:14:46;;;;;;;;;8.50;7.00;;;;;20.14;55.57;101846.80;105659;1296;19376;-69
2022/11/28 01:17:13;;;;;;;;;8.00;7.00;;;;;20.14;55.59;101847.55;105712;1294;19549;-68
2022/11/28 01:19:41;;;;;;;;;5.00;4.50;;;;;20.14;55.69;101847.00;105692;1281;19961;-69
2022/11/28 01:22:08;;;;;;;;;4.00;4.00;;;;;20.13;55.64;101844.55;105667;1288;19188;-69
2022/11/28 01:24:35;;;;;;;;;5.00;5.00;;;;;20.12;55.69;101839.36;105603;1289;19551;-67
2022/11/28 01:27:03;;;;;;;;;8.00;5.00;;;;;20.12;55.52;101835.08;105709;1279;21465;-68
2022/11/28 01:29:30;;;;;;;;;5.00;4.50;;;;;20.12;55.65;101833.04;105670;1279;19613;-70
2022/11/28 01:31:58;;;;;;;;;4.00;4.00;;;;;20.12;55.48;101825.77;105675;1297;19271;-67
2022/11/28 01:34:25;;;;;;;;;5.00;5.00;;;;;20.12;55.65;101826.84;105684;1274;23503;-68
2022/11/28 01:36:53;;;;;;;;;4.50;4.00;;;;;20.13;55.37;101828.39;105638;1289;19156;-68
2022/11/28 01:39:20;;;;;;;;;5.00;5.00;;;;;20.13;55.62;101826.27;105674;1276;19626;-67
2022/11/28 01:41:48;;;;;;;;;8.00;5.00;;;;;20.13;55.55;101820.66;105652;1297;23590;-69
2022/11/28 01:44:15;;;;;;;;;7.00;5.00;;;;;20.12;55.64;101818.54;105712;1290;23064;-69
2022/11/28 01:46:42;;;;;;;;;5.00;5.00;;;;;20.13;55.55;101817.77;105675;1281;20673;-68
2022/11/28 01:49:10;;;;;;;;;6.00;6.00;;;;;20.11;55.52;101813.87;105675;1279;23702;-70
2022/11/28 01:51:37;;;;;;;;;5.00;5.00;;;;;20.12;55.41;101812.59;105638;1297;19562;-68
2022/11/28 01:54:05;;;;;;;;;8.00;7.00;;;;;20.11;55.28;101810.44;105631;1272;19530;-69
2022/11/28 01:56:32;;;;;;;;;4.50;4.50;;;;;20.11;55.37;101810.31;105688;1279;20288;-67
2022/11/28 01:58:59;;;;;;;;;7.00;5.00;;;;;20.11;55.53;101812.61;105667;1297;19310;-66
2022/11/28 02:01:27;;;;;;;;;5.00;5.00;;;;;20.12;55.28;101817.11;105616;1292;23397;-67
2022/11/28 02:03:54;;;;;;;;;7.00;5.00;;;;;20.11;55.35;101816.27;105661;1294;20090;-68
2022/11/28 02:06:22;;;;;;;;;5.00;5.00;;;;;20.11;55.25;101812.44;105690;1287;22028;-67
2022/11/28 02:08:49;;;;;;;;;6.00;5.00;;;;;20.11;55.42;101810.33;105665;1281;24595;-67
2022/11/28 02:11:17;;;;;;;;;4.00;4.00;;;;;20.11;55.16;101808.15;105682;1297;20463;-67
2022/11/28 02:13:44;;;;;;;;;;;;;;;20.10;55.50;101805.62;105667;1297;19277;-71
2022/11/28 02:16:12;;;;;;;;;5.00;5.00;;;;;20.10;55.22;101807.50;105661;1296;22428;-68
2022/11/28 02:18:39;;;;;;;;;4.00;4.00;;;;;20.10;55.49;101805.29;105689;1295;20059;-67
2022/11/28 02:21:07;;;;;;;;;6.00;6.00;;;;;20.09;55.25;101802.46;105656;1280;23574;-69
2022/11/28 02:23:34;;;;;;;;;6.00;6.00;;;;;20.09;55.26;101802.52;105565;1271;19406;-71
2022/11/28 02:26:02;;;;;;;;;4.50;4.50;;;;;20.09;55.20;101800.99;105512;1271;20415;-69
2022/11/28 02:28:29;;;;;;;;;;;;;;;20.10;55.31;101800.02;105665;1297;28413;-68
2022/11/28 02:30:57;;;;;;;;;5.00;4.00;;;;;20.10;55.20;101797.27;105729;1272;19248;-69
2022/11/28 02:33:24;;;;;;;;;6.00;5.00;;;;;20.10;55.15;101794.27;105690;1275;19982;-68
2022/11/28 02:35:52;;;;;;;;;5.00;5.00;;;;;20.10;55.03;101796.06;105674;1288;19237;-69
2022/11/28 02:38:19;;;;;;;;;4.50;4.50;;;;;20.11;55.13;101795.25;105662;1279;19276;-68
2022/11/28 02:40:47;;;;;;;;;4.00;4.00;;;;;20.10;55.28;101793.52;105645;1280;22833;-69
2022/11/28 02:43:14;;;;;;;;;5.00;4.00;;;;;20.09;55.32;101791.64;105696;1280;19635;-67
2022/11/28 02:45:41;;;;;;;;;5.00;4.00;;;;;20.08;55.15;101788.63;105704;1280;20984;-71
2022/11/28 02:48:09;;;;;;;;;5.00;5.00;;;;;20.07;55.31;101782.13;105655;1291;20490;-67
2022/11/28 02:50:37;;;;;;;;;7.00;7.00;;;;;20.08;55.14;101780.97;105663;1295;24190;-69
2022/11/28 02:53:05;;;;;;;;;5.00;5.00;;;;;20.09;55.03;101782.89;105660;1295;19240;-69
2022/11/28 02:55:32;;;;;;;;;5.00;5.00;;;;;20.10;54.95;101788.45;105647;1297;23678;-68
2022/11/28 02:58:00;;;;;;;;;7.00;7.00;;;;;20.08;54.82;101789.11;105708;1297;19071;-68
2022/11/28 03:00:28;;;;;;;;;8.00;7.00;;;;;20.08;55.24;101785.73;105608;1287;19587;-68
2022/11/28 03:02:55;;;;;;;;;5.00;5.00;;;;;20.08;55.03;101781.89;105662;1297;20085;-68
2022/11/28 03:05:23;;;;;;;;;5.00;5.00;;;;;20.08;54.90;101780.02;105700;1292;19328;-68
2022/11/28 03:07:50;;;;;;;;;7.00;5.00;;;;;20.09;55.14;101777.13;105683;1297;19396;-68
2022/11/28 03:10:18;;;;;;;;;4.00;4.00;;;;;20.08;54.93;101780.23;105700;1297;23120;-67
2022/11/28 03:12:45;;;;;;;;;4.00;4.00;;;;;20.08;55.21;101783.90;105727;1297;19173;-68
2022/11/28 03:15:12;;;;;;;;;4.50;4.50;;;;;20.08;54.97;101781.31;105697;1297;19265;-68
2022/11/28 03:17:40;;;;;;;;;7.00;7.00;;;;;20.07;55.06;101784.67;105658;1289;20499;-68
2022/11/28 03:20:08;;;;;;;;;5.00;4.00;;;;;20.08;54.94;101785.94;105672;1297;22993;-69
2022/11/28 03:22:35;;;;;;;;;5.00;4.00;;;;;20.07;55.01;101787.11;105697;1279;19297;-68
2022/11/28 03:25:03;;;;;;;;;4.00;4.00;;;;;20.07;55.03;101791.04;105710;1288;23667;-68
2022/11/28 03:27:30;;;;;;;;;;;;;;;20.07;55.01;101792.30;105653;1297;19260;-68
2022/11/28 03:29:58;;;;;;;;;7.00;5.00;;;;;20.06;54.98;101792.05;105684;1288;21802;-69
2022/11/28 03:32:25;;;;;;;;;5.00;5.00;;;;;20.07;55.11;101793.65;105657;1271;20198;-68
2022/11/28 03:34:53;;;;;;;;;7.00;5.00;;;;;20.07;55.03;101791.82;105674;1297;19322;-67
2022/11/28 03:37:20;;;;;;;;;4.00;4.00;;;;;20.07;55.03;101791.45;105675;1297;19370;-68
2022/11/28 03:39:47;;;;;;;;;5.00;5.00;;;;;20.07;54.99;101789.98;105706;1297;20117;-68
2022/11/28 03:42:15;;;;;;;;;4.00;4.00;;;;;20.06;55.01;101790.21;105693;1297;19155;-68
2022/11/28 03:44:42;;;;;;;;;3.00;3.00;;;;;20.06;54.91;101785.75;105684;1295;19423;-70
2022/11/28 03:47:10;;;;;;;;;2.00;2.00;;;;;20.05;54.82;101783.29;105709;1295;19961;-69
2022/11/28 03:49:37;;;;;;;;;4.00;4.00;;;;;20.06;54.72;101778.13;105673;1288;19601;-68
2022/11/28 03:52:05;;;;;;;;;;;;;;;20.06;54.89;101782.27;105685;1297;23062;-73
2022/11/28 03:54:32;;;;;;;;;4.00;3.00;;;;;20.06;54.71;101783.58;105678;1287;21688;-68
2022/11/28 03:57:00;;;;;;;;;4.00;4.00;;;;;20.06;54.77;101781.53;105719;1297;23456;-68
2022/11/28 03:59:27;;;;;;;;;6.50;6.00;;;;;20.05;54.74;101775.25;105692;1287;23054;-70
2022/11/28 04:01:55;;;;;;;;;4.00;4.00;;;;;20.05;54.77;101773.83;105717;1291;21878;-68
2022/11/28 04:04:23;;;;;;;;;4.00;4.00;;;;;20.06;54.77;101772.34;105654;1288;24382;-68
2022/11/28 04:06:50;;;;;;;;;7.00;7.00;;;;;20.06;54.71;101775.61;105710;1294;19515;-67
2022/11/28 04:09:18;;;;;;;;;6.33;4.67;;;;;20.06;54.67;101771.25;105678;1279;20396;-68
2022/11/28 04:11:46;;;;;;;;;2.00;2.00;;;;;20.05;54.65;101775.64;105692;1297;19120;-68
2022/11/28 04:14:13;;;;;;;;;4.00;4.00;;;;;20.05;54.72;101778.77;105707;1281;22570;-68
2022/11/28 04:16:41;;;;;;;;;7.00;5.00;;;;;20.05;54.60;101777.87;105671;1297;20156;-67
2022/11/28 04:19:08;;;;;;;;;;;;;;;20.05;54.77;101774.40;105742;1291;19882;-68
2022/11/28 04:21:35;;;;;;;;;4.00;4.00;;;;;20.05;54.78;101772.77;105726;1279;19575;-68
2022/11/28 04:24:03;;;;;;;;;5.00;5.00;;;;;20.04;54.75;101767.80;105691;1272;20122;-68
2022/11/28 04:26:30;;;;;;;;;4.50;4.50;;;;;20.03;54.51;101761.67;105714;1297;19412;-68
2022/11/28 04:28:58;;;;;;;;;4.00;4.00;;;;;20.03;54.68;101754.02;105673;1279;20967;-68
2022/11/28 04:31:25;;;;;;;;;;;;;;;20.04;54.66;101754.91;105620;1272;20088;-68
2022/11/28 04:33:53;;;;;;;;;4.00;4.00;;;;;20.04;54.74;101752.91;105673;1271;23128;-68
2022/11/28 04:36:20;;;;;;;;;4.00;4.00;;;;;20.04;54.56;101755.40;105634;1279;19278;-67
2022/11/28 04:38:55;;;;;;;;;;;;;;;20.05;54.57;101757.70;105640;1272;20275;-68
2022/11/28 04:41:22;;;;;;;;;4.00;4.00;;;;;20.03;54.77;101756.21;105645;1282;24103;-68
2022/11/28 04:43:49;;;;;;;;;7.00;5.00;;;;;20.03;54.72;101749.86;105677;1288;19365;-68
2022/11/28 04:46:17;;;;;;;;;4.00;4.00;;;;;20.03;54.56;101748.75;105619;1279;20386;-69
2022/11/28 04:48:44;;;;;;;;;5.00;4.00;;;;;20.02;54.70;101745.61;105720;1285;19474;-71
2022/11/28 04:51:13;;;;;;;;;5.00;5.00;;;;;20.02;54.53;101749.80;105693;1287;23748;-69
2022/11/28 04:53:40;;;;;;;;;;;;;;;20.03;54.54;101752.28;105670;1291;21834;-69
2022/11/28 04:56:08;;;;;;;;;5.00;4.00;;;;;20.01;54.67;101752.41;105647;1297;19224;-68
2022/11/28 04:58:35;;;;;;;;;7.00;5.00;;;;;20.02;54.63;101750.48;105633;1279;19371;-66
2022/11/28 05:01:02;;;;;;;;;4.00;4.00;;;;;20.02;54.52;101757.59;105717;1297;20225;-67
2022/11/28 05:03:30;;;;;;;;;4.00;4.00;;;;;20.01;54.44;101767.10;105646;1279;19016;-67
2022/11/28 05:05:57;;;;;;;;;5.00;4.00;;;;;20.02;54.46;101764.86;105639;1279;20806;-67
2022/11/28 05:08:25;;;;;;;;;4.00;4.00;;;;;20.01;54.68;101761.46;105624;1287;23272;-69
2022/11/28 05:10:52;;;;;;;;;4.00;4.00;;;;;20.02;54.52;101759.77;105655;1287;19600;-68
2022/11/28 05:13:20;;;;;;;;;5.00;5.00;;;;;20.02;54.55;101758.13;105631;1288;19544;-69
2022/11/28 05:15:47;;;;;;;;;8.00;5.00;;;;;20.02;54.72;101755.38;105600;1294;21527;-67
2022/11/28 05:18:14;;;;;;;;;5.00;4.00;;;;;20.01;54.40;101750.57;105537;1291;19648;-68
2022/11/28 05:20:42;;;;;;;;;4.00;4.00;;;;;20.00;54.40;101753.04;105668;1295;19695;-68
2022/11/28 05:23:09;;;;;;;;;4.00;4.00;;;;;20.01;54.54;101744.80;105675;1297;23592;-69
2022/11/28 05:25:37;;;;;;;;;4.00;4.00;;;;;20.01;54.27;101737.54;105698;1275;19106;-68
2022/11/28 05:28:04;;;;;;;;;6.00;4.00;;;;;20.01;54.41;101740.61;105719;1279;22986;-70
2022/11/28 05:30:32;;;;;;;;;4.00;2.00;;;;;20.01;54.30;101741.89;105698;1287;20344;-68
2022/11/28 05:32:59;;;;;;;;;;;;;;;20.02;54.30;101738.40;105655;1271;19208;-68
2022/11/28 05:35:27;;;;;;;;;4.00;4.00;;;;;20.00;54.37;101735.59;105696;1297;19372;-70
2022/11/28 05:37:54;;;;;;;;;7.00;5.00;;;;;20.02;54.62;101738.77;105635;1271;20048;-68
2022/11/28 05:40:21;;;;;;;;;5.00;4.00;;;;;20.00;54.66;101738.14;105607;1300;21358;-68
2022/11/28 05:42:49;;;;;;;;;5.00;5.00;;;;;20.01;54.35;101733.05;105624;1297;19456;-67
2022/11/28 05:45:16;;;;;;;;;4.00;4.00;;;;;20.00;54.36;101729.44;105503;1280;20359;-67
2022/11/28 05:47:44;;;;;;;;;4.00;4.00;;;;;20.02;54.29;101732.40;105622;1281;19764;-67
2022/11/28 05:50:11;;;;;;;;;5.00;4.50;;;;;20.02;54.40;101734.38;105639;1279;19590;-68
2022/11/28 05:52:39;;;;;;;;;4.50;4.50;;;;;20.03;54.48;101733.37;105657;1288;22742;-69
2022/11/28 05:55:06;;;;;;;;;;;;;;;20.05;54.38;101737.91;105695;1297;19641;-68
2022/11/28 05:57:34;;;;;;;;;5.00;4.00;;;;;20.05;54.74;101735.73;105653;1287;19200;-68
2022/11/28 06:00:01;;;;;;;;;4.00;4.00;;;;;20.08;54.74;101735.62;105644;1301;22191;-68
2022/11/28 06:02:29;;;;;;;;;24.00;22.00;;;;;20.12;54.74;101738.14;105683;1274;20540;-68
2022/11/28 06:04:57;;;;;;;;;93.00;71.00;;;;;20.17;55.29;101733.34;105653;1297;20818;-68
2022/11/28 06:07:25;;;;;;;;;104.00;81.00;;;;;20.17;55.93;101736.14;105631;1280;22844;-68
2022/11/28 06:09:52;;;;;;;;;89.50;71.50;;;;;20.17;56.41;101735.48;105646;1275;19124;-68
2022/11/28 06:12:20;;;;;;;;;81.00;65.00;;;;;20.19;56.55;101736.56;105586;1279;19627;-64
2022/11/28 06:14:47;;;;;;;;;67.00;54.00;;;;;20.21;56.63;101738.16;105658;1273;20082;-67
2022/11/28 06:17:15;;;;;;;;;63.50;50.00;;;;;20.21;56.35;101732.70;105631;1271;21679;-67
2022/11/28 06:19:42;;;;;;;;;57.00;45.00;;;;;20.22;56.38;101740.05;105636;1281;19371;-68
2022/11/28 06:22:10;;;;;;;;;46.00;42.00;;;;;20.20;56.35;101730.41;105675;1295;20654;-70
2022/11/28 06:24:37;;;;;;;;;41.00;37.00;;;;;20.18;56.58;101728.33;105717;1296;22830;-69
2022/11/28 06:27:04;;;;;;;;;35.00;31.00;;;;;20.18;56.39;101725.19;105637;1297;21047;-69
2022/11/28 06:29:32;;;;;;;;;30.00;28.00;;;;;20.16;56.39;101722.85;105644;1296;20397;-68
2022/11/28 06:32:00;;;;;;;;;24.00;21.00;;;;;20.19;56.40;101721.98;105644;1297;23043;-70
2022/11/28 06:34:27;;;;;;;;;25.00;21.00;;;;;20.19;56.50;101725.06;105736;1280;19456;-68
2022/11/28 06:36:55;;;;;;;;;24.00;19.00;;;;;20.19;56.42;101723.46;105719;1284;21455;-68
2022/11/28 06:39:22;;;;;;;;;;;;;;;20.16;56.61;101720.72;105678;1280;23628;-68
2022/11/28 06:41:49;;;;;;;;;15.00;14.00;;;;;20.14;56.64;101724.89;105582;1279;19315;-70
2022/11/28 06:44:17;;;;;;;;;18.00;17.00;;;;;20.13;56.50;101715.77;105582;1281;23326;-68
2022/11/28 06:46:44;;;;;;;;;12.00;12.00;;;;;20.12;56.58;101725.79;105726;1272;19265;-68
2022/11/28 06:49:12;;;;;;;;;14.00;12.00;;;;;20.10;56.58;101724.36;105746;1297;23545;-69
2022/11/28 06:51:40;;;;;;;;;11.00;11.00;;;;;20.09;56.60;101723.04;105740;1297;20114;-68
2022/11/28 06:54:07;;;;;;;;;12.00;11.00;;;;;20.07;56.84;101718.50;105709;1272;19239;-69
2022/11/28 06:56:35;;;;;;;;;12.00;11.00;;;;;20.08;56.68;101719.80;105706;1292;22965;-68
2022/11/28 06:59:02;;;;;;;;;17.00;14.00;;;;;20.12;56.29;101710.55;105658;1288;21668;-68
2022/11/28 07:01:30;;;;;;;;;12.00;12.00;;;;;20.16;56.44;101705.84;105692;1272;19244;-68
2022/11/28 07:03:57;;;;;;;;;12.00;11.00;;;;;20.18;56.23;101706.11;105746;1272;19680;-67
2022/11/28 07:06:24;;;;;;;;;14.00;12.00;;;;;20.20;56.36;101713.95;105676;1278;20171;-69
2022/11/28 07:08:52;;;;;;;;;11.50;11.50;;;;;20.19;56.42;101701.35;105625;1287;19198;-69
2022/11/28 07:11:19;;;;;;;;;12.00;12.00;;;;;20.16;56.26;101703.79;105633;1279;20816;-69
2022/11/28 07:13:47;;;;;;;;;11.50;11.00;;;;;20.14;56.15;101706.15;105694;1289;22661;-69
2022/11/28 07:16:14;;;;;;;;;12.00;11.00;;;;;20.14;55.86;101701.81;105751;1297;19760;-69
2022/11/28 07:18:42;;;;;;;;;11.50;9.00;;;;;20.13;56.15;101698.71;105740;1297;19672;-69
2022/11/28 07:21:09;;;;;;;;;10.00;8.50;;;;;20.11;55.90;101701.72;105684;1279;23082;-68
2022/11/28 07:23:37;;;;;;;;;7.50;7.50;;;;;20.12;56.08;101698.61;105677;1297;19143;-68
2022/11/28 07:26:04;;;;;;;;;9.00;9.00;;;;;20.11;56.08;101696.55;105676;1281;20962;-68
2022/11/28 07:28:32;;;;;;;;;11.00;11.00;;;;;20.10;55.96;101690.21;105724;1295;21156;-68
2022/11/28 07:30:59;;;;;;;;;10.00;10.00;;;;;20.10;56.14;101681.38;105660;1295;19223;-69
2022/11/28 07:33:27;;;;;;;;;8.00;8.00;;;;;20.09;56.07;101679.27;105669;1275;19355;-68
2022/11/28 07:35:55;;;;;;;;;8.00;7.00;;;;;20.08;56.01;101674.80;105646;1279;20302;-69
2022/11/28 07:38:22;;;;;;;;;8.00;8.00;;;;;20.09;55.79;101678.38;105632;1279;23578;-68
2022/11/28 07:40:50;;;;;;;;;8.00;8.00;;;;;20.09;56.00;101681.47;105715;1295;19701;-68
2022/11/28 07:43:17;;;;;;;;;7.50;7.00;;;;;20.07;56.06;101682.02;105721;1297;23596;-69
2022/11/28 07:45:45;;;;;;;;;7.00;7.00;;;;;20.08;55.98;101684.80;105695;1298;19749;-69
2022/11/28 07:48:12;;;;;;;;;10.00;8.00;;;;;20.08;55.79;101692.59;105696;1291;19547;-68
2022/11/28 07:50:40;;;;;;;;;;;;;;;20.08;55.70;101692.80;105703;1288;21891;-68
2022/11/28 07:53:07;;;;;;;;;8.00;8.00;;;;;20.07;55.89;101684.00;105675;1279;19429;-69
2022/11/28 07:55:35;;;;;;;;;10.00;8.00;;;;;20.07;55.62;101684.92;105693;1297;23796;-68
2022/11/28 07:58:03;;;;;;;;;10.00;10.00;;;;;20.09;55.63;101686.91;105727;1281;20028;-68
2022/11/28 08:00:30;;;;;;;;;7.00;7.00;;;;;20.08;55.50;101686.29;105671;1279;20234;-67
2022/11/28 08:02:57;;;;;;;;;7.00;7.00;;;;;20.08;55.28;101685.00;105663;1271;19593;-68
2022/11/28 08:05:25;;;;;;;;;9.00;6.00;;;;;20.09;55.25;101684.34;105720;1295;20128;-68
2022/11/28 08:07:53;;;;;;;;;8.00;7.00;;;;;20.09;55.30;101676.23;105724;1286;19236;-68
2022/11/28 08:10:20;;;;;;;;;8.00;8.00;;;;;20.09;55.39;101678.91;105662;1297;19265;-68
2022/11/28 08:12:47;;;;;;;;;10.00;8.00;;;;;20.09;55.35;101679.60;105719;1290;21806;-68
2022/11/28 08:15:15;;;;;;;;;10.00;8.00;;;;;20.09;55.14;101673.10;105693;1297;19254;-68
2022/11/28 08:17:42;;;;;;;;;5.00;5.00;;;;;20.09;55.28;101668.42;105703;1297;19397;-68
2022/11/28 08:20:10;;;;;;;;;7.00;7.00;;;;;20.08;55.11;101665.34;105670;1279;20463;-68
2022/11/28 08:22:37;;;;;;;;;7.00;7.00;;;;;20.08;55.17;101666.19;105650;1272;19222;-68
2022/11/28 08:25:05;;;;;;;;;6.00;6.00;;;;;20.11;55.27;101666.98;105721;1301;19307;-69
2022/11/28 08:27:32;;;;;;;;;7.50;7.00;;;;;20.11;55.02;101671.81;105660;1271;20102;-67
2022/11/28 08:30:00;;;;;;;;;8.00;8.00;;;;;20.11;55.29;101672.51;105647;1280;23794;-67
2022/11/28 08:32:27;;;;;;;;;8.00;8.00;;;;;20.11;55.28;101666.38;105661;1288;20588;-68
2022/11/28 08:34:55;;;;;;;;;7.00;7.00;;;;;20.11;55.25;101670.24;105650;1297;20552;-67
2022/11/28 08:37:22;;;;;;;;;8.00;7.00;;;;;20.10;55.41;101670.23;105697;1289;19322;-67
2022/11/28 08:39:50;;;;;;;;;8.00;8.00;;;;;20.11;55.04;101670.05;105702;1297;19544;-67
2022/11/28 08:42:17;;;;;;;;;;;;;;;20.11;55.23;101666.01;105683;1297;20356;-67
2022/11/28 08:44:45;;;;;;;;;7.00;7.00;;;;;20.12;55.34;101663.23;105673;1279;19405;-68
2022/11/28 08:47:13;;;;;;;;;7.00;7.00;;;;;20.15;55.01;101662.39;105654;1279;22959;-68
2022/11/28 08:49:40;;;;;;;;;11.00;9.00;;;;;20.15;54.90;101665.77;105565;1281;24501;-68
2022/11/28 08:52:08;;;;;;;;;;;;;;;20.14;54.79;101663.89;105683;1288;19174;-68
2022/11/28 08:54:35;;;;;;;;;8.00;7.00;;;;;20.12;54.95;101664.62;105652;1271;23655;-72
2022/11/28 08:57:03;;;;;;;;;7.00;7.00;;;;;20.13;54.83;101664.02;105655;1281;20368;-67
2022/11/28 08:59:30;;;;;;;;;10.50;7.00;;;;;20.14;54.86;101662.65;105671;1295;19390;-68
2022/11/28 09:01:57;;;;;;;;;8.00;7.00;;;;;20.12;54.88;101665.58;105669;1288;24333;-69
2022/11/28 09:04:25;;;;;;;;;7.00;7.00;;;;;20.12;54.85;101663.70;105688;1294;24550;-69
2022/11/28 09:06:52;;;;;;;;;7.00;7.00;;;;;20.13;54.91;101661.84;105672;1291;19075;-68
2022/11/28 09:09:20;;;;;;;;;7.00;7.00;;;;;20.16;54.84;101660.83;105690;1279;23749;-68
2022/11/28 09:11:48;;;;;;;;;7.50;7.50;;;;;20.18;54.51;101658.57;105662;1297;24314;-68
2022/11/28 09:14:15;;;;;;;;;7.00;7.00;;;;;20.20;54.77;101660.35;105629;1297;19925;-68
2022/11/28 09:16:43;;;;;;;;;9.00;9.00;;;;;20.20;54.89;101663.27;105684;1271;19446;-69
2022/11/28 09:19:10;;;;;;;;;7.00;7.00;;;;;20.21;54.84;101658.47;105709;1297;20075;-68
2022/11/28 09:21:37;;;;;;;;;7.00;7.00;;;;;20.21;54.57;101659.59;105686;1297;19248;-67
2022/11/28 09:24:05;;;;;;;;;9.00;8.00;;;;;20.20;54.82;101658.93;105625;1281;19755;-68
2022/11/28 09:26:33;;;;;;;;;7.00;5.00;;;;;20.22;54.77;101653.70;105690;1272;21553;-67
2022/11/28 09:29:00;;;;;;;;;8.00;8.00;;;;;20.24;54.49;101652.52;105694;1279;19222;-70
2022/11/28 09:31:28;;;;;;;;;5.00;5.00;;;;;20.26;54.54;101650.15;105667;1297;19423;-68
2022/11/28 09:33:56;;;;;;;;;8.00;7.00;;;;;20.27;54.63;101650.10;105713;1297;21290;-69
2022/11/28 09:36:23;;;;;;;;;9.00;7.50;;;;;20.27;54.52;101643.15;105685;1279;19267;-68
2022/11/28 09:38:51;;;;;;;;;8.00;8.00;;;;;20.28;54.24;101642.21;105676;1288;20707;-68
2022/11/28 09:41:18;;;;;;;;;8.50;8.00;;;;;20.29;54.37;101636.48;105712;1297;20078;-68
2022/11/28 09:43:46;;;;;;;;;8.00;8.00;;;;;20.30;54.33;101639.70;105713;1279;19562;-68
2022/11/28 09:46:13;;;;;;;;;9.50;9.50;;;;;20.30;54.25;101642.75;105659;1279;24279;-70
2022/11/28 09:48:40;;;;;;;;;8.00;8.00;;;;;20.30;54.33;101642.38;105704;1297;21550;-67
2022/11/28 09:51:08;;;;;;;;;8.00;7.00;;;;;20.29;54.08;101642.08;105669;1295;19253;-68
2022/11/28 09:53:35;;;;;;;;;9.00;7.00;;;;;20.29;54.19;101639.89;105633;1272;19360;-69
2022/11/28 09:56:03;;;;;;;;;7.50;7.50;;;;;20.29;54.09;101637.71;105685;1297;19984;-67
2022/11/28 09:58:30;;;;;;;;;7.00;7.00;;;;;20.30;54.32;101640.23;105677;1279;20024;-67
2022/11/28 10:00:58;;;;;;;;;7.00;7.00;;;;;20.27;54.32;101638.23;105699;1279;19517;-68
2022/11/28 10:03:25;;;;;;;;;7.00;7.00;;;;;20.28;54.38;101640.58;105638;1289;20237;-68
2022/11/28 10:05:53;;;;;;;;;5.00;5.00;;;;;20.27;54.47;101637.52;105689;1272;19218;-67
2022/11/28 10:08:20;;;;;;;;;9.00;8.00;;;;;20.22;54.22;101640.00;105649;1301;22229;-68
2022/11/28 10:10:49;;;;;;;;;8.00;7.00;;;;;20.18;54.03;101637.16;105628;1297;20097;-68
2022/11/28 10:13:16;;;;;;;;;12.00;9.00;;;;;20.18;54.09;101639.74;105743;1279;19181;-69
2022/11/28 10:15:44;;;;;;;;;11.00;8.00;;;;;20.18;54.00;101635.33;105660;1297;21067;-69
2022/11/28 10:18:11;;;;;;;;;7.50;7.50;;;;;20.19;53.84;101631.25;105654;1279;20258;-68
2022/11/28 10:20:38;;;;;;;;;11.00;9.00;;;;;20.18;53.84;101628.97;105638;1272;19100;-68
2022/11/28 10:23:06;;;;;;;;;9.00;8.00;;;;;20.19;53.58;101629.48;105635;1279;19577;-70
2022/11/28 10:25:33;;;;;;;;;8.00;8.00;;;;;20.20;53.68;101626.59;105649;1281;23542;-69
2022/11/28 10:28:02;;;;;;;;;8.00;8.00;;;;;20.20;53.44;101625.02;105717;1294;20450;-68
2022/11/28 10:30:29;;;;;;;;;7.00;7.00;;;;;20.17;53.65;101622.94;105631;1280;19536;-68
2022/11/28 10:32:57;;;;;;;;;8.00;7.00;;;;;20.18;53.62;101620.90;105655;1271;20463;-67
2022/11/28 10:35:24;;;;;;;;;8.00;8.00;;;;;20.23;53.63;101619.67;105688;1297;19233;-69
2022/11/28 10:37:52;;;;;;;;;8.50;8.50;;;;;20.23;53.55;101618.72;105646;1289;20831;-69
2022/11/28 10:40:19;;;;;;;;;9.00;9.00;;;;;20.23;53.76;101618.52;105652;1294;22872;-69
2022/11/28 10:42:47;;;;;;;;;11.00;9.00;;;;;20.23;53.79;101616.92;105718;1295;19609;-68
2022/11/28 10:45:14;;;;;;;;;9.00;8.00;;;;;20.25;53.80;101614.73;105628;1289;19652;-67
2022/11/28 10:47:41;;;;;;;;;8.00;7.00;;;;;20.25;53.84;101610.36;105614;1274;23576;-68
2022/11/28 10:50:09;;;;;;;;;9.00;8.00;;;;;20.27;53.91;101611.42;105666;1272;19560;-68
2022/11/28 10:52:36;;;;;;;;;8.00;8.00;;;;;20.27;53.98;101606.53;105631;1294;19300;-67
2022/11/28 10:55:04;;;;;;;;;11.00;11.00;;;;;20.26;53.98;101604.59;105657;1279;20103;-67
2022/11/28 10:57:32;;;;;;;;;8.50;8.00;;;;;20.27;54.14;101605.65;105639;1275;20996;-67
2022/11/28 10:59:59;;;;;;;;;11.00;11.00;;;;;20.27;54.06;101601.71;105613;1297;19269;-69
2022/11/28 11:02:27;;;;;;;;;8.00;8.00;;;;;20.28;54.03;101601.70;105668;1297;21831;-69
2022/11/28 11:04:55;;;;;;;;;7.50;6.00;;;;;20.27;54.16;101597.26;105613;1279;19749;-68
2022/11/28 11:07:22;;;;;;;;;8.00;8.00;;;;;20.27;54.35;101596.90;105631;1281;19281;-68
2022/11/28 11:09:50;;;;;;;;;9.00;8.00;;;;;20.28;54.44;101599.52;105697;1284;20754;-67
2022/11/28 11:12:17;;;;;;;;;8.00;7.00;;;;;20.27;54.36;101594.67;105609;1297;19542;-67
2022/11/28 11:14:45;;;;;;;;;7.00;7.00;;;;;20.26;54.49;101588.59;105642;1297;19349;-69
2022/11/28 11:17:12;;;;;;;;;7.00;7.00;;;;;20.28;54.83;101591.15;105606;1274;20265;-67